| time (UTC) | temp F | wind direction | speed MPH | gust MPH | rain 1hr in | rain 24hr in | rain mn in | humidity % | barometer mb |
| 20260502203905 | 89 | 176 | 0.0 | 0.0 | 0.00 | 0.00 | 0.00 | 18 | 1010.0 |
| 20260502203404 | 89 | 176 | 0.0 | 0.0 | 0.00 | 0.00 | 0.00 | 17 | 1010.1 |
| 20260502202905 | 89 | 176 | 0.0 | 6.0 | 0.00 | 0.00 | 0.00 | 18 | 1010.2 |
| 20260502202404 | 89 | 176 | 0.0 | 5.0 | 0.00 | 0.00 | 0.00 | 19 | 1010.3 |
| 20260502201904 | 88 | 177 | 0.0 | 3.0 | 0.00 | 0.00 | 0.00 | 20 | 1010.4 |
| 20260502201404 | 89 | 176 | 0.0 | 5.0 | 0.00 | 0.00 | 0.00 | 20 | 1010.3 |
| 20260502195905 | 89 | 176 | 0.0 | 7.0 | 0.00 | 0.00 | 0.00 | 21 | 1010.5 |
| 20260502195404 | 89 | 176 | 1.0 | 6.0 | 0.00 | 0.00 | 0.00 | 22 | 1010.6 |
| 20260502194405 | 89 | 178 | 0.0 | 1.0 | 0.00 | 0.00 | 0.00 | 23 | 1010.6 |
| 20260502193906 | 89 | 178 | 0.0 | 0.0 | 0.00 | 0.00 | 0.00 | 23 | 1010.7 |
| 20260502193404 | 89 | 173 | 0.0 | 3.0 | 0.00 | 0.00 | 0.00 | 24 | 1010.8 |
| 20260502192905 | 89 | 173 | 0.0 | 1.0 | 0.00 | 0.00 | 0.00 | 24 | 1010.9 |
| 20260502192405 | 88 | 173 | 0.0 | 1.0 | 0.00 | 0.00 | 0.00 | 24 | 1011.0 |
| 20260502191904 | 87 | 173 | 0.0 | 0.0 | 0.00 | 0.00 | 0.00 | 25 | 1011.0 |
| 20260502191404 | 87 | 173 | 0.0 | 2.0 | 0.00 | 0.00 | 0.00 | 25 | 1011.1 |
| 20260502190905 | 87 | 173 | 0.0 | 0.0 | 0.00 | 0.00 | 0.00 | 25 | 1011.3 |
| 20260502185904 | 87 | 173 | 0.0 | 1.0 | 0.00 | 0.00 | 0.00 | 25 | 1011.6 |
| 20260502185405 | 87 | 173 | 0.0 | 3.0 | 0.00 | 0.00 | 0.00 | 26 | 1011.6 |
| 20260502184905 | 86 | 173 | 1.0 | 5.0 | 0.00 | 0.00 | 0.00 | 25 | 1011.7 |
| 20260502184406 | 86 | 173 | 0.0 | 2.0 | 0.00 | 0.00 | 0.00 | 25 | 1011.8 |
| 20260502183905 | 87 | 174 | 0.0 | 5.0 | 0.00 | 0.00 | 0.00 | 26 | 1011.8 |
| 20260502182404 | 86 | 173 | 0.0 | 2.0 | 0.00 | 0.00 | 0.00 | 25 | 1012.1 |
| 20260502180904 | 86 | 171 | 1.0 | 6.0 | 0.00 | 0.00 | 0.00 | 25 | 1012.3 |
| 20260502180405 | 86 | 176 | 1.0 | 9.0 | 0.00 | 0.00 | 0.00 | 26 | 1012.3 |
| 20260502170404 | 84 | 178 | 1.0 | 6.0 | 0.00 | 0.00 | 0.00 | 29 | 1012.7 |
| 20260502163404 | 83 | 179 | 2.0 | 9.0 | 0.00 | 0.00 | 0.00 | 30 | 1012.5 |
| 20260502162905 | 83 | 178 | 1.0 | 10.0 | 0.00 | 0.00 | 0.00 | 30 | 1012.5 |
| 20260502162404 | 82 | 178 | 0.0 | 6.0 | 0.00 | 0.00 | 0.00 | 29 | 1012.6 |
| 20260502161905 | 83 | 180 | 2.0 | 12.0 | 0.00 | 0.00 | 0.00 | 28 | 1012.6 |
| 20260502161405 | 83 | 194 | 1.0 | 15.0 | 0.00 | 0.00 | 0.00 | 28 | 1012.5 |
| 20260502160904 | 83 | 293 | 0.0 | 0.0 | 0.00 | 0.00 | 0.00 | 25 | 1012.5 |
| 20260502160405 | 82 | 293 | 0.0 | 0.0 | 0.00 | 0.00 | 0.00 | 26 | 1012.6 |
| 20260502151905 | 79 | 293 | 0.0 | 0.0 | 0.00 | 0.00 | 0.00 | 25 | 1012.3 |
| 20260502151404 | 79 | 293 | 0.0 | 0.0 | 0.00 | 0.00 | 0.00 | 26 | 1012.3 |
| 20260502150904 | 78 | 293 | 0.0 | 0.0 | 0.00 | 0.00 | 0.00 | 26 | 1012.4 |
| 20260502150404 | 78 | 293 | 0.0 | 0.0 | 0.00 | 0.00 | 0.00 | 26 | 1012.3 |
| 20260502130404 | 72 | 292 | 0.0 | 0.0 | 0.00 | 0.00 | 0.00 | 28 | 1010.7 |
| 20260502123404 | 69 | 290 | 0.0 | 0.0 | 0.00 | 0.00 | 0.00 | 30 | 1010.5 |
| 20260502122404 | 68 | 290 | 0.0 | 0.0 | 0.00 | 0.00 | 0.00 | 31 | 1010.3 |
| 20260502121904 | 68 | 290 | 0.0 | 0.0 | 0.00 | 0.00 | 0.00 | 31 | 1010.3 |
| 20260502121404 | 68 | 290 | 0.0 | 0.0 | 0.00 | 0.00 | 0.00 | 31 | 1010.2 |
| 20260502120904 | 67 | 290 | 0.0 | 0.0 | 0.00 | 0.00 | 0.00 | 31 | 1010.2 |
| 20260502120404 | 67 | 290 | 0.0 | 0.0 | 0.00 | 0.00 | 0.00 | 32 | 1010.3 |
| 20260502115904 | 68 | 290 | 0.0 | 0.0 | 0.00 | 0.00 | 0.00 | 32 | 1010.2 |
| 20260502115404 | 68 | 290 | 0.0 | 0.0 | 0.00 | 0.00 | 0.00 | 32 | 1010.1 |
| 20260502114904 | 67 | 290 | 0.0 | 0.0 | 0.00 | 0.00 | 0.00 | 32 | 1010.1 |
| 20260502114405 | 67 | 290 | 0.0 | 0.0 | 0.00 | 0.00 | 0.00 | 32 | 1010.1 |
| 20260502113904 | 67 | 290 | 0.0 | 0.0 | 0.00 | 0.00 | 0.00 | 33 | 1010.0 |
| 20260502113404 | 68 | 290 | 0.0 | 0.0 | 0.00 | 0.00 | 0.00 | 32 | 1010.0 |
| 20260502112904 | 69 | 289 | 0.0 | 0.0 | 0.00 | 0.00 | 0.00 | 32 | 1009.9 |
| 20260502112404 | 70 | 290 | 0.0 | 0.0 | 0.00 | 0.00 | 0.00 | 30 | 1009.9 |
| 20260502111904 | 70 | 290 | 0.0 | 0.0 | 0.00 | 0.00 | 0.00 | 29 | 1009.9 |
| 20260502111404 | 70 | 290 | 0.0 | 0.0 | 0.00 | 0.00 | 0.00 | 29 | 1009.9 |
| 20260502110904 | 70 | 290 | 0.0 | 0.0 | 0.00 | 0.00 | 0.00 | 29 | 1009.8 |
| 20260502110404 | 69 | 290 | 0.0 | 0.0 | 0.00 | 0.00 | 0.00 | 30 | 1009.8 |
| 20260502105904 | 69 | 290 | 0.0 | 0.0 | 0.00 | 0.00 | 0.00 | 30 | 1009.9 |
| 20260502105404 | 68 | 290 | 0.0 | 0.0 | 0.00 | 0.00 | 0.00 | 31 | 1009.8 |
| 20260502104404 | 69 | 290 | 0.0 | 0.0 | 0.00 | 0.00 | 0.00 | 31 | 1009.9 |
| 20260502103905 | 70 | 290 | 0.0 | 0.0 | 0.00 | 0.00 | 0.00 | 30 | 1009.8 |
| 20260502103405 | 70 | 290 | 0.0 | 0.0 | 0.00 | 0.00 | 0.00 | 30 | 1009.8 |
| 20260502102904 | 70 | 291 | 0.0 | 0.0 | 0.00 | 0.00 | 0.00 | 30 | 1009.7 |
| 20260502102404 | 70 | 290 | 0.0 | 0.0 | 0.00 | 0.00 | 0.00 | 30 | 1009.7 |
| 20260502101904 | 71 | 290 | 0.0 | 0.0 | 0.00 | 0.00 | 0.00 | 30 | 1009.7 |
| 20260502101405 | 71 | 290 | 0.0 | 0.0 | 0.00 | 0.00 | 0.00 | 29 | 1009.6 |
| 20260502100905 | 72 | 290 | 0.0 | 0.0 | 0.00 | 0.00 | 0.00 | 29 | 1009.5 |
| 20260502100404 | 72 | 290 | 0.0 | 0.0 | 0.00 | 0.00 | 0.00 | 28 | 1009.5 |
| 20260502091404 | 74 | 290 | 0.0 | 0.0 | 0.00 | 0.00 | 0.00 | 27 | 1009.4 |
| 20260502090904 | 74 | 290 | 0.0 | 0.0 | 0.00 | 0.00 | 0.00 | 27 | 1009.4 |
| 20260502071404 | 72 | 290 | 0.0 | 9.0 | 0.00 | 0.00 | 0.00 | 30 | 1009.4 |
| 20260502070904 | 72 | 281 | 1.0 | 5.0 | 0.00 | 0.00 | 0.00 | 31 | 1009.4 |
| 20260502070404 | 72 | 254 | 0.0 | 0.0 | 0.00 | 0.00 | 0.00 | 32 | 1009.2 |
| 20260502065404 | 72 | 254 | 0.0 | 0.0 | 0.00 | 0.00 | 0.00 | 32 | 1009.1 |
| 20260502064904 | 72 | 254 | 0.0 | 0.0 | 0.00 | 0.00 | 0.00 | 33 | 1009.1 |
| 20260502064405 | 72 | 255 | 0.0 | 0.0 | 0.00 | 0.00 | 0.00 | 33 | 1009.1 |
| 20260502063903 | 72 | 255 | 0.0 | 0.0 | 0.00 | 0.00 | 0.00 | 32 | 1009.0 |
| 20260502062904 | 72 | 255 | 0.0 | 0.0 | 0.00 | 0.00 | 0.00 | 32 | 1008.9 |
| 20260502062404 | 72 | 255 | 0.0 | 0.0 | 0.00 | 0.00 | 0.00 | 32 | 1008.9 |
| 20260502061904 | 72 | 255 | 0.0 | 0.0 | 0.00 | 0.00 | 0.00 | 32 | 1008.9 |
| 20260502061404 | 72 | 255 | 0.0 | 0.0 | 0.00 | 0.00 | 0.00 | 32 | 1008.8 |
| 20260502060904 | 73 | 255 | 0.0 | 0.0 | 0.00 | 0.00 | 0.00 | 32 | 1008.8 |
| 20260502055904 | 73 | 254 | 0.0 | 0.0 | 0.00 | 0.00 | 0.00 | 32 | 1008.6 |
| 20260502055403 | 73 | 255 | 0.0 | 0.0 | 0.00 | 0.00 | 0.00 | 31 | 1008.6 |
| 20260502054904 | 73 | 255 | 0.0 | 0.0 | 0.00 | 0.00 | 0.00 | 31 | 1008.5 |
| 20260502053905 | 73 | 254 | 0.0 | 0.0 | 0.00 | 0.00 | 0.00 | 31 | 1008.4 |
| 20260502053405 | 74 | 255 | 0.0 | 0.0 | 0.00 | 0.00 | 0.00 | 31 | 1008.3 |
| 20260502052904 | 74 | 255 | 0.0 | 0.0 | 0.00 | 0.00 | 0.00 | 31 | 1008.3 |
| 20260502052404 | 74 | 254 | 0.0 | 0.0 | 0.00 | 0.00 | 0.00 | 31 | 1008.3 |
| 20260502051903 | 74 | 255 | 0.0 | 0.0 | 0.00 | 0.00 | 0.00 | 30 | 1008.3 |
| 20260502051404 | 75 | 255 | 0.0 | 0.0 | 0.00 | 0.00 | 0.00 | 30 | 1008.2 |
| 20260502050904 | 75 | 255 | 0.0 | 0.0 | 0.00 | 0.00 | 0.00 | 30 | 1008.2 |
| 20260502045904 | 76 | 255 | 0.0 | 0.0 | 0.00 | 0.00 | 0.00 | 29 | 1008.1 |
| 20260502045404 | 75 | 255 | 0.0 | 0.0 | 0.00 | 0.00 | 0.00 | 29 | 1008.1 |
| 20260502044904 | 76 | 255 | 0.0 | 0.0 | 0.00 | 0.00 | 0.00 | 29 | 1008.1 |
| 20260502044404 | 76 | 254 | 0.0 | 0.0 | 0.00 | 0.00 | 0.00 | 29 | 1008.1 |
| 20260502043905 | 76 | 257 | 0.0 | 0.0 | 0.00 | 0.00 | 0.00 | 28 | 1008.1 |
| 20260502043404 | 76 | 255 | 0.0 | 0.0 | 0.00 | 0.00 | 0.00 | 28 | 1008.1 |
| 20260502042904 | 76 | 255 | 0.0 | 0.0 | 0.00 | 0.00 | 0.00 | 28 | 1008.1 |
| 20260502042404 | 77 | 255 | 0.0 | 0.0 | 0.00 | 0.00 | 0.00 | 28 | 1007.9 |
| 20260502041904 | 77 | 254 | 0.0 | 0.0 | 0.00 | 0.00 | 0.00 | 28 | 1007.9 |
| 20260502040903 | 77 | 255 | 0.0 | 0.0 | 0.00 | 0.00 | 0.00 | 27 | 1007.8 |
| 20260502034904 | 78 | 254 | 0.0 | 0.0 | 0.00 | 0.00 | 0.00 | 27 | 1007.7 |
| 20260502034404 | 78 | 254 | 0.0 | 0.0 | 0.00 | 0.00 | 0.00 | 26 | 1007.6 |
| 20260502033904 | 79 | 254 | 0.0 | 0.0 | 0.00 | 0.00 | 0.00 | 26 | 1007.6 |
| 20260502033404 | 79 | 255 | 0.0 | 0.0 | 0.00 | 0.00 | 0.00 | 26 | 1007.6 |
| 20260502032903 | 79 | 254 | 0.0 | 0.0 | 0.00 | 0.00 | 0.00 | 25 | 1007.4 |
| 20260502031903 | 80 | 254 | 0.0 | 0.0 | 0.00 | 0.00 | 0.00 | 25 | 1007.2 |
| 20260502031404 | 80 | 255 | 0.0 | 0.0 | 0.00 | 0.00 | 0.00 | 25 | 1007.2 |
| 20260502030904 | 81 | 255 | 0.0 | 0.0 | 0.00 | 0.00 | 0.00 | 25 | 1007.1 |
| 20260502030403 | 81 | 254 | 0.0 | 0.0 | 0.00 | 0.00 | 0.00 | 24 | 1007.0 |
| 20260502025904 | 82 | 255 | 0.0 | 0.0 | 0.00 | 0.00 | 0.00 | 24 | 1007.1 |
| 20260502025404 | 82 | 254 | 0.0 | 0.0 | 0.00 | 0.00 | 0.00 | 24 | 1007.0 |
| 20260502024404 | 82 | 255 | 0.0 | 0.0 | 0.00 | 0.00 | 0.00 | 24 | 1007.0 |
| 20260502023904 | 83 | 255 | 0.0 | 0.0 | 0.00 | 0.00 | 0.00 | 23 | 1006.8 |
| 20260502023404 | 83 | 254 | 0.0 | 0.0 | 0.00 | 0.00 | 0.00 | 23 | 1006.7 |
| 20260502022904 | 83 | 255 | 0.0 | 0.0 | 0.00 | 0.00 | 0.00 | 23 | 1006.5 |
| 20260502022403 | 83 | 254 | 0.0 | 0.0 | 0.00 | 0.00 | 0.00 | 23 | 1006.5 |
| 20260502021904 | 83 | 255 | 0.0 | 0.0 | 0.00 | 0.00 | 0.00 | 22 | 1006.5 |
| 20260502021403 | 84 | 254 | 0.0 | 0.0 | 0.00 | 0.00 | 0.00 | 22 | 1006.4 |
| 20260502020904 | 84 | 254 | 0.0 | 0.0 | 0.00 | 0.00 | 0.00 | 22 | 1006.4 |
| 20260502020404 | 84 | 254 | 0.0 | 0.0 | 0.00 | 0.00 | 0.00 | 21 | 1006.4 |
| 20260502015404 | 85 | 254 | 0.0 | 0.0 | 0.00 | 0.00 | 0.00 | 21 | 1006.6 |
| 20260502014904 | 85 | 254 | 0.0 | 0.0 | 0.00 | 0.00 | 0.00 | 22 | 1006.5 |
| 20260502014404 | 85 | 254 | 0.0 | 0.0 | 0.00 | 0.00 | 0.00 | 22 | 1006.5 |
| 20260502013903 | 85 | 254 | 0.0 | 0.0 | 0.00 | 0.00 | 0.00 | 22 | 1006.5 |
| 20260502013404 | 85 | 254 | 0.0 | 0.0 | 0.00 | 0.00 | 0.00 | 22 | 1006.5 |
| 20260502012903 | 85 | 254 | 0.0 | 0.0 | 0.00 | 0.00 | 0.00 | 22 | 1006.5 |
| 20260502012403 | 86 | 254 | 0.0 | 0.0 | 0.00 | 0.00 | 0.00 | 22 | 1006.4 |
| 20260502011903 | 86 | 254 | 0.0 | 0.0 | 0.00 | 0.00 | 0.00 | 23 | 1006.4 |
| 20260502011404 | 86 | 254 | 0.0 | 0.0 | 0.00 | 0.00 | 0.00 | 23 | 1006.5 |
| 20260502010904 | 86 | 254 | 0.0 | 0.0 | 0.00 | 0.00 | 0.00 | 23 | 1006.4 |
| 20260502010403 | 86 | 254 | 0.0 | 0.0 | 0.00 | 0.00 | 0.00 | 23 | 1006.5 |
| 20260502005904 | 86 | 254 | 0.0 | 0.0 | 0.00 | 0.00 | 0.00 | 23 | 1006.7 |
| 20260502005404 | 86 | 254 | 0.0 | 0.0 | 0.00 | 0.00 | 0.00 | 23 | 1006.7 |
| 20260502004904 | 86 | 254 | 0.0 | 0.0 | 0.00 | 0.00 | 0.00 | 23 | 1006.8 |
| 20260502004404 | 87 | 254 | 0.0 | 0.0 | 0.00 | 0.00 | 0.00 | 23 | 1006.7 |
| 20260502003903 | 87 | 254 | 0.0 | 0.0 | 0.00 | 0.00 | 0.00 | 22 | 1006.8 |
| 20260502003404 | 86 | 255 | 0.0 | 0.0 | 0.00 | 0.00 | 0.00 | 22 | 1006.7 |
| 20260502002403 | 87 | 256 | 0.0 | 0.0 | 0.00 | 0.00 | 0.00 | 23 | 1006.7 |
| 20260502001903 | 87 | 255 | 0.0 | 0.0 | 0.00 | 0.00 | 0.00 | 22 | 1006.7 |
| 20260502001403 | 87 | 255 | 0.0 | 0.0 | 0.00 | 0.00 | 0.00 | 23 | 1006.8 |
| 20260502000904 | 87 | 256 | 0.0 | 0.0 | 0.00 | 0.00 | 0.00 | 22 | 1006.9 |
| 20260502000404 | 87 | 256 | 0.0 | 1.0 | 0.00 | 0.00 | 0.00 | 22 | 1006.9 |
| 20260501235904 | 87 | 255 | 0.0 | 0.0 | 0.00 | 0.00 | 0.00 | 22 | 1006.8 |
| 20260501235404 | 86 | 255 | 0.0 | 0.0 | 0.00 | 0.00 | 0.00 | 22 | 1006.9 |
| 20260501234903 | 86 | 255 | 0.0 | 0.0 | 0.00 | 0.00 | 0.00 | 22 | 1006.9 |
| 20260501234404 | 87 | 255 | 0.0 | 0.0 | 0.00 | 0.00 | 0.00 | 22 | 1006.9 |
| 20260501233404 | 86 | 255 | 0.0 | 0.0 | 0.00 | 0.00 | 0.00 | 21 | 1006.9 |
| 20260501232904 | 86 | 256 | 0.0 | 1.0 | 0.00 | 0.00 | 0.00 | 21 | 1007.0 |
| 20260501232404 | 87 | 255 | 0.0 | 0.0 | 0.00 | 0.00 | 0.00 | 22 | 1007.0 |
| 20260501231404 | 86 | 252 | 0.0 | 0.0 | 0.00 | 0.00 | 0.00 | 21 | 1007.1 |
| 20260501230404 | 86 | 252 | 0.0 | 1.0 | 0.00 | 0.00 | 0.00 | 22 | 1007.1 |
| 20260501225903 | 86 | 257 | 0.0 | 0.0 | 0.00 | 0.00 | 0.00 | 23 | 1007.0 |
| 20260501225403 | 86 | 257 | 0.0 | 0.0 | 0.00 | 0.00 | 0.00 | 23 | 1007.1 |
| 20260501224904 | 86 | 257 | 0.0 | 1.0 | 0.00 | 0.00 | 0.00 | 24 | 1007.0 |
| 20260501223904 | 86 | 260 | 0.0 | 0.0 | 0.00 | 0.00 | 0.00 | 24 | 1007.2 |
| 20260501223403 | 86 | 260 | 0.0 | 0.0 | 0.00 | 0.00 | 0.00 | 24 | 1007.3 |
| 20260501222904 | 86 | 259 | 0.0 | 1.0 | 0.00 | 0.00 | 0.00 | 23 | 1007.4 |
| 20260501221904 | 86 | 262 | 0.0 | 1.0 | 0.00 | 0.00 | 0.00 | 24 | 1007.5 |
| 20260501221404 | 86 | 261 | 0.0 | 0.0 | 0.00 | 0.00 | 0.00 | 24 | 1007.5 |
| 20260501220904 | 86 | 261 | 0.0 | 5.0 | 0.00 | 0.00 | 0.00 | 24 | 1007.5 |
| 20260501215904 | 85 | 261 | 0.0 | 1.0 | 0.00 | 0.00 | 0.00 | 25 | 1007.7 |
| 20260501215404 | 85 | 261 | 0.0 | 2.0 | 0.00 | 0.00 | 0.00 | 25 | 1007.8 |
| 20260501214903 | 85 | 265 | 0.0 | 2.0 | 0.00 | 0.00 | 0.00 | 25 | 1007.9 |
| 20260501214404 | 85 | 266 | 0.0 | 0.0 | 0.00 | 0.00 | 0.00 | 25 | 1008.0 |
| 20260501213903 | 85 | 266 | 1.0 | 7.0 | 0.00 | 0.00 | 0.00 | 25 | 1008.0 |
| 20260501213404 | 85 | 266 | 0.0 | 1.0 | 0.00 | 0.00 | 0.00 | 25 | 1008.1 |
| 20260501212403 | 85 | 267 | 0.0 | 0.0 | 0.00 | 0.00 | 0.00 | 25 | 1008.2 |
| 20260501211904 | 85 | 275 | 0.0 | 1.0 | 0.00 | 0.00 | 0.00 | 26 | 1008.3 |
| 20260501211404 | 84 | 275 | 0.0 | 2.0 | 0.00 | 0.00 | 0.00 | 26 | 1008.3 |
| 20260501210905 | 84 | 267 | 0.0 | 3.0 | 0.00 | 0.00 | 0.00 | 26 | 1008.4 |
| 20260501210405 | 85 | 253 | 0.0 | 0.0 | 0.00 | 0.00 | 0.00 | 26 | 1008.5 |
| 20260501205904 | 85 | 253 | 0.0 | 0.0 | 0.00 | 0.00 | 0.00 | 26 | 1008.4 |
| 20260501205404 | 85 | 253 | 0.0 | 2.0 | 0.00 | 0.00 | 0.00 | 26 | 1008.4 |
| 20260501204904 | 85 | 255 | 0.0 | 1.0 | 0.00 | 0.00 | 0.00 | 26 | 1008.5 |
| 20260501204405 | 84 | 255 | 0.0 | 0.0 | 0.00 | 0.00 | 0.00 | 26 | 1008.7 |